Latest Weather Observations for Cerberus

IDV60901

Issued at 2:31 pm EDT Friday 19 January 2018 (issued every 10 minutes, with the page automatically refreshed every 10 minutes)

About weather observations | Map of Melbourne area stations | Latest observations for Melbourne area | Other Formats
Station Details ID: 086361 Name: CERBERUS Lat: -38.36 Lon: 145.18 Height: 12.69 m
Data from the previous 72 hours. | See also: Recent months at Cerberus
Date/Time
EDT
Temp
°C
App
Temp
°C
Dew
Point
°C
Rel
Hum
%
Delta-T
°C
Wind Press
QNH
hPa
Press
MSL
hPa
Rain since
9am
mm
Dir  Spd
km/h
Gust
km/h
Spd
kts
Gust
kts
19/02:30pm 30.1 27.6 9.6 28 11.5 SSW 13 17 7 9 1010.6 1010.6 0.0
19/02:00pm 29.9 27.5 11.4 32 10.7 SSW 15 20 8 11 1010.6 1010.6 0.0
19/01:30pm 30.1 26.8 11.6 32 10.7 SSW 20 30 11 16 1010.7 1010.7 0.0
19/01:14pm 32.9 29.3 9.7 24 13.2 WNW 19 26 10 14 1010.7 1010.7 0.0
19/01:00pm 39.0 33.7 1.9 10 19.4 NW 19 32 10 17 1010.3 1010.3 0.0
19/12:30pm 38.3 33.1 2.7 11 18.7 NNW 19 32 10 17 1010.5 1010.5 0.0
19/12:00pm 37.7 32.5 3.4 12 18.2 NNW 20 33 11 18 1010.6 1010.6 0.0
19/11:30am 37.3 32.6 3.1 12 18.0 NNW 17 35 9 19 1010.5 1010.5 0.0
19/11:00am 36.1 30.5 3.3 13 17.2 NW 22 41 12 22 1010.8 1010.8 0.0
19/10:30am 34.6 28.4 2.2 13 16.5 NNW 24 37 13 20 1010.8 1010.8 0.0
19/10:00am 33.8 28.1 2.6 14 16.0 NNW 22 37 12 20 1011.0 1011.0 0.0
19/09:30am 33.1 28.2 2.1 14 15.7 N 17 28 9 15 1011.1 1011.1 0.0
19/09:00am 32.1 27.2 2.2 15 15.0 NNW 17 28 9 15 1011.2 1011.2 0.0
19/08:30am 31.2 26.0 2.4 16 14.4 NNW 19 28 10 15 1011.3 1011.3 0.0
19/08:00am 30.2 25.0 2.5 17 13.8 NNW 19 30 10 16 1011.1 1011.1 0.0
19/07:30am 29.2 24.4 2.5 18 13.2 N 17 30 9 16 1010.7 1010.7 0.0
19/07:00am 27.7 23.7 2.7 20 12.3 N 13 26 7 14 1010.6 1010.6 0.0
19/06:30am 27.0 23.4 2.8 21 11.9 N 11 17 6 9 1010.7 1010.7 0.0
19/06:00am 26.6 22.9 2.5 21 11.8 NNW 11 17 6 9 1010.6 1010.6 0.0
19/05:30am 27.9 23.5 2.9 20 12.4 NNW 15 26 8 14 1010.3 1010.3 0.0
19/05:00am 27.4 23.7 4.5 23 11.6 NNW 13 20 7 11 1010.0 1010.0 0.0
19/04:30am 25.9 23.4 8.0 32 9.6 NNW 11 17 6 9 1009.9 1009.9 0.0
19/04:00am 24.8 23.1 8.3 35 8.8 NNW 7 13 4 7 1009.9 1009.9 0.0
19/03:30am 24.7 22.5 7.8 34 9.0 NW 9 11 5 6 1009.9 1009.9 0.0
19/03:00am 25.2 23.2 10.3 39 8.3 NW 11 19 6 10 1010.1 1010.1 0.0
19/02:30am 24.7 23.4 12.6 47 7.0 NW 11 19 6 10 1010.0 1010.0 0.0
19/02:00am 23.7 22.9 13.0 51 6.2 NNW 9 15 5 8 1010.1 1010.1 0.0
19/01:30am 20.0 19.6 13.0 64 4.0 N 7 13 4 7 1010.1 1010.1 0.0
19/01:00am 18.5 18.8 12.3 67 3.4 NNW 2 6 1 3 1010.2 1010.2 0.0
19/12:30am 19.2 19.9 12.2 64 3.9 CALM 0 0 0 0 1010.6 1010.6 0.0
19/12:00am 19.6 20.0 12.4 63 4.0 W 2 4 1 2 1010.7 1010.7 0.0
 
Date/Time
EDT
Temp
°C
App
Temp
°C
Dew
Point
°C
Rel
Hum
%
Delta-T
°C
Wind Press
QNH
hPa
Press
MSL
hPa
Rain since
9am
mm
Dir  Spd
km/h
Gust
km/h
Spd
kts
Gust
kts
18/11:30pm 20.9 21.6 12.3 58 4.8 CALM 0 0 0 0 1010.6 1010.6 0.0
18/11:00pm 21.6 22.4 12.7 57 5.1 CALM 0 0 0 0 1010.8 1010.8 0.0
18/10:30pm 23.0 23.7 12.3 51 6.1 CALM 0 0 0 0 1010.6 1010.6 0.0
18/10:00pm 24.5 25.2 12.1 46 7.1 CALM 0 0 0 0 1010.5 1010.5 0.0
18/09:30pm 26.1 26.3 11.8 41 8.2 W 2 2 1 1 1010.0 1010.0 0.0
18/09:00pm 28.8 28.2 10.5 32 10.4 WSW 4 6 2 3 1009.8 1009.8 0.0
18/08:30pm 31.5 30.8 10.2 27 12.2 NNE 4 6 2 3 1009.4 1009.4 0.0
18/08:00pm 34.1 32.3 8.0 20 14.6 NE 7 13 4 7 1009.2 1009.2 0.0
18/07:30pm 36.1 33.9 6.3 16 16.4 NE 7 11 4 6 1009.1 1009.1 0.0
18/07:00pm 38.5 35.2 0.0 9 19.5 NNW 7 13 4 7 1009.2 1009.2 0.0
18/06:30pm 38.7 35.0 0.2 9 19.5 NNW 9 13 5 7 1009.2 1009.2 0.0
18/06:00pm 39.0 35.4 0.4 9 19.7 NNW 9 20 5 11 1009.5 1009.5 0.0
18/05:30pm 38.9 35.5 1.8 10 19.3 N 9 20 5 11 1010.0 1010.0 0.0
18/05:00pm 38.8 34.2 1.7 10 19.3 NNW 15 30 8 16 1010.4 1010.4 0.0
18/04:30pm 38.7 34.5 1.6 10 19.2 NNW 13 22 7 12 1010.7 1010.7 0.0
18/04:00pm 38.5 34.1 2.8 11 18.8 NW 15 30 8 16 1011.0 1011.0 0.0
18/03:30pm 38.3 34.3 2.7 11 18.7 NW 13 28 7 15 1011.3 1011.3 0.0
18/03:00pm 38.1 32.9 2.5 11 18.6 NNW 19 32 10 17 1011.5 1011.5 0.0
18/02:30pm 37.7 33.0 3.4 12 18.2 NNW 17 30 9 16 1011.8 1011.8 0.0
18/02:00pm 37.4 32.7 3.2 12 18.0 N 17 30 9 16 1012.1 1012.1 0.0
18/01:30pm 36.8 32.2 3.9 13 17.5 NNW 17 32 9 17 1012.6 1012.6 0.0
18/01:00pm 35.6 30.9 3.0 13 17.0 NNW 17 32 9 17 1013.0 1013.0 0.0
18/12:30pm 35.4 31.0 4.8 15 16.4 NNW 17 28 9 15 1013.4 1013.4 0.0
18/12:00pm 34.7 30.8 5.2 16 15.8 NNW 15 26 8 14 1013.8 1013.7 0.0
18/11:30am 33.9 30.2 6.3 18 15.0 NNW 15 28 8 15 1013.9 1013.8 0.0
18/11:00am 32.5 28.9 6.7 20 14.0 N 15 28 8 15 1014.2 1014.1 0.0
18/10:30am 29.5 29.5 14.1 39 9.3 NE 7 15 4 8 1014.4 1014.3 0.0
18/10:00am 26.9 27.1 14.6 46 7.4 ENE 7 13 4 7 1014.6 1014.5 0.0
18/09:30am 24.4 24.4 15.1 56 5.6 ENE 9 15 5 8 1014.8 1014.7 0.0
18/09:00am 22.3 22.4 14.4 61 4.6 NNE 7 11 4 6 1015.0 1014.9 0.0
18/08:30am 19.9 19.9 14.3 70 3.2 NNE 7 13 4 7 1015.1 1015.0 0.0
18/08:00am 18.0 18.5 14.9 82 1.8 NNE 6 11 3 6 1015.2 1015.1 0.0
18/07:30am 15.8 16.2 13.8 88 1.1 NNE 4 7 2 4 1015.1 1015.0 0.0
18/07:00am 14.1 14.1 12.3 89 1.0 N 4 6 2 3 1015.0 1014.9 0.0
18/06:30am 13.8 13.7 12.0 89 1.0 N 4 6 2 3 1014.6 1014.5 0.0
18/06:00am 14.1 14.0 12.1 88 1.1 N 4 7 2 4 1014.5 1014.4 0.0
18/05:30am 14.4 14.0 12.4 88 1.1 N 6 9 3 5 1014.5 1014.4 0.0
18/05:00am 14.9 14.7 12.9 88 1.1 N 6 9 3 5 1014.5 1014.4 0.0
18/04:30am 15.7 15.6 13.2 85 1.4 NNE 6 7 3 4 1014.6 1014.5 0.0
18/04:00am 17.0 17.0 14.1 83 1.7 NNE 7 11 4 6 1014.7 1014.6 0.0
18/03:30am 17.0 17.1 13.9 82 1.8 NNE 6 9 3 5 1015.0 1014.9 0.0
18/03:00am 17.4 17.6 14.3 82 1.8 NNE 6 9 3 5 1015.2 1015.1 0.0
18/02:30am 17.7 18.4 14.6 82 1.8 NNE 4 7 2 4 1015.3 1015.2 0.0
18/02:00am 17.4 17.9 14.9 85 1.4 NNE 6 9 3 5 1015.6 1015.5 0.0
18/01:30am 15.8 16.2 13.8 88 1.1 NNE 4 7 2 4 1015.8 1015.7 0.0
18/01:00am 15.4 15.8 13.6 89 1.0 NNE 4 6 2 3 1016.0 1015.9 0.0
18/12:30am 13.7 13.5 11.8 88 1.0 WSW 4 6 2 3 1016.0 1015.9 0.0
18/12:00am 15.4 16.5 13.4 88 1.1 CALM 0 0 0 0 1016.1 1016.0 0.0
 
Date/Time
EDT
Temp
°C
App
Temp
°C
Dew
Point
°C
Rel
Hum
%
Delta-T
°C
Wind Press
QNH
hPa
Press
MSL
hPa
Rain since
9am
mm
Dir  Spd
km/h
Gust
km/h
Spd
kts
Gust
kts
17/11:30pm 15.3 16.3 13.2 87 1.2 CALM 0 4 0 2 1016.1 1016.0 0.0
17/11:00pm 15.8 16.5 13.5 86 1.3 WSW 2 4 1 2 1016.1 1016.0 0.0
17/10:30pm 17.1 18.2 14.6 85 1.4 WSW 2 6 1 3 1016.0 1015.9 0.0
17/10:00pm 17.9 19.2 15.2 84 1.6 WSW 2 4 1 2 1016.0 1015.9 0.0
17/09:30pm 18.6 19.7 15.5 82 1.8 WSW 4 6 2 3 1015.8 1015.7 0.0
17/09:00pm 19.4 20.0 15.7 79 2.2 WSW 7 9 4 5 1015.8 1015.7 0.0
17/08:30pm 21.7 22.3 15.8 69 3.5 SW 7 9 4 5 1015.7 1015.6 0.0
17/08:00pm 23.5 24.0 15.5 60 4.8 SSW 7 9 4 5 1015.8 1015.7 0.0
17/07:30pm 24.4 24.9 15.6 58 5.3 SSW 7 13 4 7 1015.7 1015.6 0.0
17/07:00pm 25.4 24.7 14.2 50 6.6 S 11 19 6 10 1015.6 1015.5 0.0
17/06:30pm 25.7 24.2 11.8 42 7.9 S 11 17 6 9 1015.4 1015.3 0.0
17/06:00pm 26.7 25.5 14.1 46 7.5 S 13 19 7 10 1015.4 1015.3 0.0
17/05:30pm 27.1 24.9 10.8 36 9.2 S 13 19 7 10 1015.6 1015.5 0.0
17/05:00pm 27.8 25.6 10.9 35 9.6 SW 13 20 7 11 1015.7 1015.6 0.0
17/04:30pm 27.6 25.6 8.5 30 10.4 S 9 19 5 10 1016.0 1015.9 0.0
17/04:00pm 27.0 25.3 11.1 37 9.0 SW 11 15 6 8 1016.2 1016.1 0.0
17/03:30pm 26.5 24.5 10.2 36 9.1 S 11 17 6 9 1016.5 1016.4 0.0
17/03:00pm 26.3 24.3 10.0 36 9.0 S 11 17 6 9 1016.6 1016.5 0.0
17/02:30pm 26.4 24.5 10.5 37 8.9 ESE 11 17 6 9 1016.8 1016.7 0.0
17/02:00pm 26.0 24.9 9.8 36 8.9 SSW 6 11 3 6 1017.0 1016.9 0.0
17/01:30pm 24.9 23.7 8.0 34 9.0 ENE 4 9 2 5 1017.5 1017.4 0.0
17/01:00pm 24.4 22.3 8.4 36 8.5 ENE 9 17 5 9 1017.9 1017.8 0.0
17/12:30pm 23.4 21.2 7.9 37 8.2 ENE 9 13 5 7 1018.5 1018.4 0.0
17/12:00pm 22.3 20.3 8.8 42 7.2 E 9 17 5 9 1018.8 1018.7 0.0
17/11:30am 22.2 20.5 11.3 50 6.1 E 11 19 6 10 1019.0 1018.9 0.0
17/11:00am 21.3 20.7 12.4 57 5.0 E 7 15 4 8 1019.2 1019.1 0.0
17/10:30am 19.7 18.3 10.9 57 4.8 ENE 9 15 5 8 1019.5 1019.4 0.0
17/10:00am 19.2 17.9 11.3 60 4.3 ENE 9 15 5 8 1019.7 1019.6 0.0
17/09:30am 18.1 16.6 10.7 62 4.0 NE 9 15 5 8 1019.5 1019.4 0.0
17/09:00am 17.9 16.5 11.0 64 3.7 NE 9 17 5 9 1019.6 1019.5 0.0
17/08:30am 17.5 16.1 10.9 65 3.6 ENE 9 15 5 8 1019.5 1019.4 0.0
17/08:00am 16.9 15.7 10.3 65 3.5 ENE 7 13 4 7 1019.2 1019.1 0.0
17/07:30am 16.1 14.8 10.0 67 3.2 E 7 13 4 7 1019.2 1019.1 0.0
17/07:00am 14.2 13.1 10.0 76 2.2 E 6 9 3 5 1018.8 1018.7 0.0
17/06:30am 12.9 12.3 9.0 77 2.0 ESE 2 6 1 3 1018.7 1018.6 0.0
17/06:00am 13.1 12.2 9.2 77 2.0 E 4 6 2 3 1018.6 1018.5 0.0
17/05:30am - - - - - E 4 7 2 4 1018.5 1018.4 0.0
17/05:00am - - - - - E 6 11 3 6 1018.7 1018.6 0.0
17/04:30am - - - - - E 6 9 3 5 1018.7 1018.6 0.0
17/04:00am - - - - - E 6 9 3 5 1018.9 1018.8 0.0
17/03:30am - - - - - E 4 6 2 3 1019.1 1019.0 0.0
17/03:00am - - - - - E 4 7 2 4 1019.6 1019.5 0.0
17/02:30am - - - - - ESE 4 9 2 5 1020.0 1019.9 0.0
17/02:00am - - - - - E 6 13 3 7 1020.2 1020.1 0.0
17/01:30am - - - - - E 6 9 3 5 1020.4 1020.3 0.0
17/01:00am - - - - - ESE 7 13 4 7 1020.7 1020.6 0.0
17/12:30am - - - - - E 7 11 4 6 1021.0 1020.9 0.0
17/12:00am - - - - - ESE 6 9 3 5 1020.9 1020.8 0.0
 
Date/Time
EDT
Temp
°C
App
Temp
°C
Dew
Point
°C
Rel
Hum
%
Delta-T
°C
Wind Press
QNH
hPa
Press
MSL
hPa
Rain since
9am
mm
Dir  Spd
km/h
Gust
km/h
Spd
kts
Gust
kts
16/11:30pm - - - - - ESE 7 15 4 8 1021.0 1020.9 0.0
16/11:00pm - - - - - ESE 9 17 5 9 1021.2 1021.1 0.0
16/10:30pm 18.0 15.9 11.3 65 3.6 ESE 13 24 7 13 1021.4 1021.3 0.0
16/10:00pm 18.4 15.6 11.5 64 3.8 ESE 17 24 9 13 1021.4 1021.3 0.0
16/09:30pm 18.7 16.4 11.8 64 3.8 ESE 15 24 8 13 1021.0 1020.9 0.0
16/09:00pm 19.3 16.3 11.8 62 4.1 ESE 19 28 10 15 1020.9 1020.8 0.0
16/08:30pm 19.9 17.4 12.2 61 4.3 ESE 17 30 9 16 1020.6 1020.5 0.0
16/08:00pm 20.7 17.7 12.1 58 4.8 SE 19 32 10 17 1020.5 1020.4 0.0
16/07:30pm 21.5 19.0 12.4 56 5.1 SE 17 30 9 16 1020.6 1020.5 0.0
16/07:00pm 22.2 19.1 12.2 53 5.6 SE 20 33 11 18 1020.2 1020.1 0.0
16/06:30pm 22.7 20.0 12.9 54 5.6 SE 19 32 10 17 1020.2 1020.1 0.0
16/06:00pm 22.9 20.0 12.8 53 5.8 SE 20 32 11 17 1020.1 1020.0 0.0
16/05:30pm 23.0 19.4 13.2 54 5.7 SE 24 35 13 19 1020.3 1020.2 0.0
16/05:00pm 22.9 19.1 12.5 52 5.9 SE 24 37 13 20 1020.5 1020.4 0.0
16/04:30pm 24.1 21.3 13.3 51 6.3 SE 20 32 11 17 1020.8 1020.7 0.0
16/04:00pm 24.2 21.7 12.2 47 6.8 SE 17 28 9 15 1020.8 1020.7 0.0
16/03:30pm 24.6 22.4 10.8 42 7.7 ESE 13 19 7 10 1021.1 1021.0 0.0
16/03:00pm 23.9 21.5 10.2 42 7.5 SE 13 24 7 13 1021.3 1021.2 0.0

Latest Capital City Observations: Canberra | Sydney | Melbourne | Brisbane | Adelaide | Perth | Hobart | Darwin

Other Formats:

Comma delimited format used in spreadsheet applications
http://www.bom.gov.au/fwo/IDV60901/IDV60901.94898.axf

JavaScript Object Notation format (JSON) in row-major order
http://www.bom.gov.au/fwo/IDV60901/IDV60901.94898.json